Terminal Aerodrome Forecast
Issued by NWS Wilmington, OH

Current Version | Previous Version | Text Only | Print | Product List | Glossary Off
Versions: 1 2 3 4 5 6 7 8 9 10 11 12 13 14 15 16 17 18 19 20 21 22 23 24 25 26 27 28

196
FTUS41 KILN 202340
TAFCVG
TAF
KCVG 202340Z 2100/2206 06004KT P6SM VCSH OVC035
      TEMPO 2100/2103 5SM -SHRA BR OVC015
     FM210300 VRB03KT P6SM -SHRA OVC015
     FM210600 03002KT 4SM BR OVC015
     FM211100 01005KT P6SM OVC025
     FM211400 01006KT P6SM BKN035
     FM211500 36009KT P6SM BKN150
     FM220500 35009KT P6SM BKN250=

USA.gov is the U.S. government's official web portal to all federal, state and local government web resources and services.